createdAt,value
2019-02-24T00:04:03.557Z,103444.85
2019-02-24T00:09:16.562Z,103438.22
2019-02-24T00:14:26.037Z,103444.64
2019-02-24T00:19:35.069Z,103449.73
2019-02-24T00:24:47.721Z,103450.31
2019-02-24T00:29:55.793Z,103445.02
2019-02-24T00:35:07.541Z,103445.80
2019-02-24T00:40:16.845Z,103444.45
2019-02-24T00:45:28.167Z,103439.89
2019-02-24T00:50:41.023Z,103429.78
2019-02-24T00:56:04.583Z,103429.55
2019-02-24T01:01:13.073Z,103425.42
2019-02-24T01:06:26.608Z,103420.02
2019-02-24T01:11:40.139Z,103413.48
2019-02-24T01:16:51.814Z,103408.84
2019-02-24T01:22:04.649Z,103404.70
2019-02-24T01:27:16.814Z,103402.45
2019-02-24T01:32:25.249Z,103400.08
2019-02-24T01:37:32.640Z,103410.34
2019-02-24T01:42:51.760Z,103426.09
2019-02-24T01:48:05.413Z,103419.88
2019-02-24T01:53:17.865Z,103417.67
2019-02-24T01:58:35.240Z,103420.16
2019-02-24T02:03:42.477Z,103417.55
2019-02-24T02:08:57.900Z,103424.05
2019-02-24T02:14:09.908Z,103432.63
2019-02-24T02:19:19.485Z,103426.41
2019-02-24T02:24:33.125Z,103421.16
2019-02-24T02:29:43.140Z,103426.73
2019-02-24T02:34:56.849Z,103422.35
2019-02-24T02:40:08.369Z,103416.56
2019-02-24T02:45:17.615Z,103421.71
2019-02-24T02:50:30.319Z,103408.66
2019-02-24T02:55:40.377Z,103414.20
2019-02-24T03:00:51.851Z,103411.54
2019-02-24T03:06:21.574Z,103408.35
2019-02-24T03:11:30.936Z,103405.53
2019-02-24T03:16:40.921Z,103408.41
2019-02-24T03:21:52.567Z,103406.61
2019-02-24T03:27:01.673Z,103409.16
2019-02-24T03:32:14.345Z,103406.66
2019-02-24T03:37:23.446Z,103413.91
2019-02-24T03:42:35.288Z,103415.88
2019-02-24T03:47:45.068Z,103411.05
2019-02-24T03:52:53.204Z,103408.22
2019-02-24T03:58:05.933Z,103421.52
2019-02-24T04:03:17.608Z,103426.16
2019-02-24T04:08:27.580Z,103422.48
2019-02-24T04:13:34.104Z,103428.52
2019-02-24T04:18:42.045Z,103432.79
2019-02-24T04:23:53.054Z,103421.30
2019-02-24T04:29:05.387Z,103429.79
2019-02-24T04:34:16.296Z,103440.05
2019-02-24T04:39:27.508Z,103454.25
2019-02-24T04:44:37.283Z,103446.33
2019-02-24T04:49:49.975Z,103438.05
2019-02-24T04:55:03.109Z,103428.36
2019-02-24T05:00:12.701Z,103427.73
2019-02-24T05:05:25.691Z,103431.94
2019-02-24T05:10:38.278Z,103430.08
2019-02-24T05:15:50.823Z,103434.05
2019-02-24T05:21:06.713Z,103426.19
2019-02-24T05:26:22.128Z,103425.27
2019-02-24T05:31:28.763Z,103431.67
2019-02-24T05:36:38.847Z,103446.02
2019-02-24T05:41:52.435Z,103450.63
2019-02-24T05:47:01.350Z,103462.49
2019-02-24T05:52:12.232Z,103461.06
2019-02-24T05:57:26.743Z,103465.31
2019-02-24T06:02:39.285Z,103464.36
2019-02-24T06:07:49.331Z,103465.91
2019-02-24T06:12:59.662Z,103462.39
2019-02-24T06:18:08.689Z,103462.30
2019-02-24T06:23:24.175Z,103462.98
2019-02-24T06:28:38.536Z,103465.80
2019-02-24T06:33:47.627Z,103470.53
2019-02-24T06:38:58.084Z,103470.98
2019-02-24T06:44:27.497Z,103468.08
2019-02-24T06:49:37.587Z,103468.95
2019-02-24T06:54:49.477Z,103481.10
2019-02-24T07:00:13.580Z,103491.19
2019-02-24T07:05:20.114Z,103500.75
2019-02-24T07:10:28.493Z,103499.96
2019-02-24T07:15:38.815Z,103503.12
2019-02-24T07:20:46.224Z,103522.91
2019-02-24T07:25:56.339Z,103524.92
2019-02-24T07:31:06.482Z,103514.05
2019-02-24T07:36:20.127Z,103514.67
2019-02-24T07:41:29.616Z,103512.19
2019-02-24T07:46:40.042Z,103521.53
2019-02-24T07:51:53.803Z,103529.69
2019-02-24T07:57:05.165Z,103539.04
2019-02-24T08:02:20.535Z,103540.53
2019-02-24T08:07:34.275Z,103534.38
2019-02-24T08:12:49.001Z,103548.65
2019-02-24T08:18:00.903Z,103545.05
2019-02-24T08:23:13.814Z,103541.70
2019-02-24T08:28:22.003Z,103544.72
2019-02-24T08:33:33.732Z,103545.75
2019-02-24T08:38:43.725Z,103549.02
2019-02-24T08:43:54.563Z,103546.88
2019-02-24T08:49:06.447Z,103544.56
2019-02-24T08:54:18.338Z,103548.23
2019-02-24T08:59:29.618Z,103540.16
2019-02-24T09:04:42.353Z,103531.89
2019-02-24T09:09:57.701Z,103537.62
2019-02-24T09:15:06.820Z,103535.23
2019-02-24T09:20:16.681Z,103533.05
2019-02-24T09:25:24.742Z,103536.20
2019-02-24T09:30:37.326Z,103548.03
2019-02-24T09:35:52.520Z,103555.52
2019-02-24T09:41:04.526Z,103551.49
2019-02-24T09:46:17.157Z,103557.22
2019-02-24T09:51:29.319Z,103566.75
2019-02-24T09:56:41.033Z,103564.96
2019-02-24T10:01:51.043Z,103560.14
2019-02-24T10:07:03.269Z,103556.19
2019-02-24T10:12:12.305Z,103561.20
2019-02-24T10:17:21.212Z,103564.48
2019-02-24T10:22:32.163Z,103559.97
2019-02-24T10:27:44.883Z,103559.83
2019-02-24T10:32:56.343Z,103558.14
2019-02-24T10:38:07.596Z,103568.87
2019-02-24T10:43:23.112Z,103571.91
2019-02-24T10:48:33.194Z,103563.77
2019-02-24T10:53:48.646Z,103570.47
2019-02-24T10:59:02.268Z,103560.34
2019-02-24T11:04:13.649Z,103558.19
2019-02-24T11:09:21.347Z,103566.57
2019-02-24T11:14:36.679Z,103572.32
2019-02-24T11:19:44.823Z,103565.85
2019-02-24T11:24:56.552Z,103571.28
2019-02-24T11:30:10.389Z,103566.41
2019-02-24T11:35:23.020Z,103565.16
2019-02-24T11:40:34.766Z,103569.52
2019-02-24T11:45:42.549Z,103554.15
2019-02-24T11:50:57.194Z,103559.14
2019-02-24T11:56:12.462Z,103550.56
2019-02-24T12:01:29.570Z,103561.72
2019-02-24T12:06:39.624Z,103570.46
2019-02-24T12:11:52.486Z,103560.84
2019-02-24T12:17:07.013Z,103542.81
2019-02-24T12:22:18.873Z,103552.36
2019-02-24T12:27:25.860Z,103541.06
2019-02-24T12:32:36.647Z,103526.07
2019-02-24T12:37:47.563Z,103531.66
2019-02-24T12:43:00.265Z,103547.97
2019-02-24T12:48:15.598Z,103560.65
2019-02-24T12:53:27.621Z,103561.78
2019-02-24T12:58:36.644Z,103557.61
2019-02-24T13:03:49.266Z,103561.16
2019-02-24T13:09:04.843Z,103549.88
2019-02-24T13:14:15.556Z,103551.55
2019-02-24T13:19:27.434Z,103546.73
2019-02-24T13:24:43.788Z,103544.52
2019-02-24T13:29:59.118Z,103542.44
2019-02-24T13:35:09.962Z,103547.69
2019-02-24T13:40:19.043Z,103542.63
2019-02-24T13:45:29.059Z,103536.11
2019-02-24T13:50:40.675Z,103539.40
2019-02-24T13:55:47.876Z,103536.00
2019-02-24T14:01:01.443Z,103539.73
2019-02-24T14:06:13.955Z,103537.98
2019-02-24T14:11:24.815Z,103536.48
2019-02-24T14:16:35.660Z,103532.88
2019-02-24T14:21:45.516Z,103522.06
2019-02-24T14:26:57.518Z,103529.05
2019-02-24T14:32:08.582Z,103521.29
2019-02-24T14:37:19.996Z,103513.32
2019-02-24T14:42:35.510Z,103503.38
2019-02-24T14:47:58.359Z,103504.04
2019-02-24T14:53:11.606Z,103491.60
2019-02-24T14:58:23.612Z,103495.96
2019-02-24T15:03:33.560Z,103493.78
2019-02-24T15:08:43.524Z,103485.58
2019-02-24T15:13:58.982Z,103485.21
2019-02-24T15:19:11.886Z,103472.98
2019-02-24T15:24:19.312Z,103474.08
2019-02-24T15:29:31.856Z,103469.26
2019-02-24T15:34:45.477Z,103475.70
2019-02-24T15:39:55.812Z,103473.31
2019-02-24T15:45:06.055Z,103482.44
2019-02-24T15:50:19.908Z,103479.58
2019-02-24T15:55:28.586Z,103478.20
2019-02-24T16:00:43.043Z,103472.35
2019-02-24T16:05:55.698Z,103481.20
2019-02-24T16:11:06.500Z,103480.19
2019-02-24T16:16:15.818Z,103479.01
2019-02-24T16:21:27.977Z,103479.16
2019-02-24T16:26:37.513Z,103480.36
2019-02-24T16:31:46.891Z,103475.55
2019-02-24T16:37:03.048Z,103477.40
2019-02-24T16:42:21.093Z,103475.81
2019-02-24T16:47:31.340Z,103470.49
2019-02-24T16:52:42.601Z,103464.75
2019-02-24T16:57:51.526Z,103481.39
2019-02-24T17:03:07.624Z,103479.50
2019-02-24T17:08:21.380Z,103483.42
2019-02-24T17:13:35.653Z,103495.56
2019-02-24T17:18:48.244Z,103497.70
2019-02-24T17:24:00.808Z,103501.49
2019-02-24T17:29:12.028Z,103506.11
2019-02-24T17:34:24.111Z,103505.08
2019-02-24T17:39:38.147Z,103509.66
2019-02-24T17:44:52.358Z,103512.39
2019-02-24T17:50:11.849Z,103517.53
2019-02-24T17:55:21.031Z,103519.47
2019-02-24T18:17:51.973Z,103517.76
2019-02-24T18:23:05.851Z,103514.33
2019-02-24T18:28:14.053Z,103508.36
2019-02-24T18:33:22.056Z,103522.34
2019-02-24T18:38:29.829Z,103520.48
2019-02-24T18:43:38.332Z,103511.55
2019-02-24T18:48:45.682Z,103503.06
2019-02-24T18:53:54.598Z,103510.19
2019-02-24T18:59:01.445Z,103513.17
2019-02-24T19:04:14.395Z,103516.73
2019-02-24T19:09:23.914Z,103521.09
2019-02-24T19:14:31.503Z,103512.46
2019-02-24T19:19:39.026Z,103518.88
2019-02-24T19:24:49.536Z,103516.91
2019-02-24T19:30:00.294Z,103513.12
2019-02-24T19:35:10.815Z,103517.92
2019-02-24T19:40:37.861Z,103519.28
2019-02-24T19:45:46.946Z,103522.83
2019-02-24T19:50:55.617Z,103526.67
2019-02-24T19:56:02.447Z,103525.12
2019-02-24T20:01:11.833Z,103533.16
2019-02-24T20:06:20.190Z,103525.16
2019-02-24T20:11:28.033Z,103537.52
2019-02-24T20:16:41.668Z,103539.00
2019-02-24T20:21:49.989Z,103524.70
2019-02-24T20:26:57.743Z,103524.70
2019-02-24T20:32:06.466Z,103532.25
2019-02-24T20:37:15.775Z,103526.57
2019-02-24T20:42:26.179Z,103534.82
2019-02-24T20:47:37.022Z,103535.27
2019-02-24T20:52:45.260Z,103542.75
2019-02-24T20:57:53.515Z,103552.86
2019-02-24T21:03:04.074Z,103553.81
2019-02-24T21:08:15.205Z,103564.41
2019-02-24T21:13:24.237Z,103567.98
2019-02-24T21:18:36.357Z,103577.23
2019-02-24T21:23:50.001Z,103582.92
2019-02-24T21:29:06.264Z,103588.22
2019-02-24T21:34:18.063Z,103583.81
2019-02-24T21:39:28.148Z,103591.28
2019-02-24T21:44:36.243Z,103594.80
2019-02-24T21:49:47.973Z,103594.33
2019-02-24T21:55:01.605Z,103593.89
2019-02-24T22:00:18.864Z,103591.30
2019-02-24T22:05:31.635Z,103596.53
2019-02-24T22:10:45.257Z,103586.44
2019-02-24T22:15:53.639Z,103585.59
2019-02-24T22:21:07.195Z,103594.31
2019-02-24T22:26:20.712Z,103588.16
2019-02-24T22:31:34.226Z,103581.98
2019-02-24T22:36:50.054Z,103577.58
2019-02-24T22:42:05.358Z,103584.48
2019-02-24T22:47:14.724Z,103592.63
2019-02-24T22:52:23.834Z,103592.19
2019-02-24T22:57:39.235Z,103600.91
2019-02-24T23:02:52.773Z,103595.63
2019-02-24T23:08:04.482Z,103598.53
2019-02-24T23:13:11.787Z,103599.75
2019-02-24T23:18:23.878Z,103593.51
2019-02-24T23:32:34.755Z,103597.70
2019-02-24T23:37:46.944Z,103599.33
2019-02-24T23:42:55.655Z,103593.59
2019-02-24T23:48:04.331Z,103597.48
2019-02-24T23:53:13.022Z,103610.35
2019-02-24T23:58:22.757Z,103609.81
